Terminal Aerodrome Forecast
Issued by NWS

Home | Current Version | Previous Version | Text Only | Print | Product List | Glossary On
Versions: 1 2 3 4 5 6 7 8 9 10 11 12 13 14
617
FTUS42 KTAE 231120
TAFECP
TAF
KECP 231120Z 2312/2412 27007KT P6SM VCTS SCT021CB BKN035
      TEMPO 2312/2314 5SM -TSRA BKN021CB
     FM231400 20007KT 6SM -TSRA BKN050CB
     FM232000 20005KT P6SM SCT050 BKN250=

USA.gov is the U.S. government's official web portal to all federal, state and local government web resources and services.